Time;durP1;ratioP1;P1;durP2;ratioP2;P2;SDS_P1;SDS_P2;PMS_P1;PMS_P2;Temp;Humidity;BMP_temperature;BMP_pressure;BME280_temperature;BME280_humidity;BME280_pressure;Samples;Min_cycle;Max_cycle;Signal;HPM_P1;HPM_P2
2024/01/09 00:00:59;;;;;;;40.45;12.50;;;3.60;92.10;;;;;;5107077;28;20376;-57
2024/01/09 00:03:24;;;;;;;50.08;13.27;;;3.60;92.10;;;;;;5107144;28;20028;-57
2024/01/09 00:05:50;;;;;;;33.50;11.52;;;3.60;92.10;;;;;;5107239;28;20468;-58
2024/01/09 00:08:15;;;;;;;39.75;12.60;;;3.50;92.10;;;;;;5107008;28;20028;-58
2024/01/09 00:10:41;;;;;;;27.58;11.30;;;3.50;92.10;;;;;;5106786;28;20091;-57
2024/01/09 00:13:06;;;;;;;34.28;12.90;;;3.50;92.10;;;;;;5106229;28;20028;-57
2024/01/09 00:15:32;;;;;;;46.55;12.18;;;3.50;92.10;;;;;;5107029;28;20039;-58
2024/01/09 00:17:58;;;;;;;31.38;10.90;;;3.50;92.10;;;;;;5106896;28;20078;-57
2024/01/09 00:20:23;;;;;;;33.38;10.70;;;3.50;92.10;;;;;;5106961;28;20076;-58
2024/01/09 00:22:50;;;;;;;33.03;10.60;;;3.50;92.10;;;;;;5106858;28;20040;-57
2024/01/09 00:25:18;;;;;;;32.28;11.55;;;3.50;92.10;;;;;;5106799;28;20019;-58
2024/01/09 00:27:44;;;;;;;36.05;11.15;;;3.50;92.10;;;;;;5106776;28;20043;-58
2024/01/09 00:30:10;;;;;;;33.83;10.70;;;3.50;92.10;;;;;;5106606;28;20023;-57
2024/01/09 00:32:36;;;;;;;31.00;10.98;;;3.50;92.10;;;;;;5106651;28;20043;-58
2024/01/09 00:35:01;;;;;;;25.45;10.93;;;3.50;92.10;;;;;;5088489;28;20078;-58
2024/01/09 00:37:27;;;;;;;28.35;11.27;;;3.50;92.10;;;;;;5106696;28;20016;-57
2024/01/09 00:39:52;;;;;;;26.17;10.00;;;3.50;92.10;;;;;;5106623;28;20036;-58
2024/01/09 00:42:18;;;;;;;29.75;10.30;;;3.40;92.10;;;;;;5106678;28;20070;-57
2024/01/09 00:44:45;;;;;;;31.77;10.98;;;3.40;92.00;;;;;;5106538;28;20093;-57
2024/01/09 00:47:10;;;;;;;35.33;10.23;;;3.40;92.00;;;;;;5088600;28;20032;-57
2024/01/09 00:49:36;;;;;;;26.58;10.07;;;3.40;92.00;;;;;;5106491;28;20382;-58
2024/01/09 00:52:02;;;;;;;37.15;9.82;;;3.40;92.00;;;;;;5106538;28;20096;-57
2024/01/09 00:54:28;;;;;;;23.10;9.85;;;3.40;92.10;;;;;;5106528;28;20040;-57
2024/01/09 00:56:53;;;;;;;22.70;10.57;;;3.40;92.10;;;;;;5106377;28;20028;-57
2024/01/09 00:59:19;;;;;;;28.48;9.95;;;3.40;92.30;;;;;;5106528;28;20036;-57
2024/01/09 01:01:51;;;;;;;31.13;10.68;;;3.40;92.10;;;;;;5106414;28;20035;-57
2024/01/09 01:04:17;;;;;;;21.40;10.35;;;3.40;92.00;;;;;;5106499;28;20047;-57
2024/01/09 01:06:43;;;;;;;22.52;9.43;;;3.30;92.00;;;;;;5106241;28;20070;-58
2024/01/09 01:09:09;;;;;;;18.10;9.15;;;3.30;92.00;;;;;;5106263;28;20032;-57
2024/01/09 01:11:34;;;;;;;19.88;8.40;;;3.40;92.00;;;;;;5106326;28;20021;-58
2024/01/09 01:14:00;;;;;;;20.85;8.85;;;3.30;91.90;;;;;;5106328;28;20504;-58
2024/01/09 01:16:26;;;;;;;19.95;9.63;;;3.30;91.90;;;;;;5106356;28;20016;-57
2024/01/09 01:18:51;;;;;;;17.67;9.52;;;3.30;91.90;;;;;;5106176;28;20043;-57
2024/01/09 01:21:17;;;;;;;20.08;9.35;;;3.30;91.90;;;;;;5088336;28;20020;-58
2024/01/09 01:23:42;;;;;;;15.20;8.95;;;3.30;91.90;;;;;;5108157;28;20448;-58
2024/01/09 01:26:08;;;;;;;29.90;10.77;;;3.30;91.90;;;;;;5110115;28;20391;-58
2024/01/09 01:28:34;;;;;;;15.50;9.50;;;3.30;91.90;;;;;;5110137;28;20056;-57
2024/01/09 01:30:59;;;;;;;20.17;9.60;;;3.30;91.90;;;;;;5110109;28;20023;-57
2024/01/09 01:33:25;;;;;;;18.73;9.48;;;3.20;91.90;;;;;;5110088;28;20025;-58
2024/01/09 01:35:50;;;;;;;16.08;8.10;;;3.30;92.00;;;;;;5091596;28;20042;-57
2024/01/09 01:38:16;;;;;;;16.65;8.52;;;3.30;91.90;;;;;;5109926;28;20028;-57
2024/01/09 01:40:42;;;;;;;24.95;9.32;;;3.20;91.90;;;;;;5110006;28;20028;-57
2024/01/09 01:43:07;;;;;;;16.73;8.63;;;3.30;91.90;;;;;;5109819;28;20032;-58
2024/01/09 01:45:33;;;;;;;20.10;9.20;;;3.30;91.90;;;;;;5109895;28;20028;-57
2024/01/09 01:47:59;;;;;;;21.88;9.50;;;3.30;91.90;;;;;;5109724;28;20055;-58
2024/01/09 01:50:24;;;;;;;19.92;8.63;;;3.20;91.90;;;;;;5109235;28;20067;-57
2024/01/09 01:52:50;;;;;;;23.05;8.95;;;3.20;91.90;;;;;;5109918;28;20109;-57
2024/01/09 01:55:17;;;;;;;16.75;8.23;;;3.20;91.90;;;;;;5091558;28;20036;-58
2024/01/09 01:57:43;;;;;;;22.33;8.70;;;3.20;91.90;;;;;;5091817;28;20091;-57
2024/01/09 02:00:09;;;;;;;18.58;8.60;;;3.20;91.90;;;;;;5109560;28;20028;-57
2024/01/09 02:02:35;;;;;;;13.70;8.20;;;3.20;91.90;;;;;;5091408;28;20496;-57
2024/01/09 02:05:02;;;;;;;16.63;9.00;;;3.20;91.90;;;;;;5091495;28;20031;-58
2024/01/09 02:07:28;;;;;;;15.40;8.25;;;3.20;91.90;;;;;;5091512;28;20114;-57
2024/01/09 02:09:53;;;;;;;17.83;8.52;;;3.20;91.90;;;;;;5091132;28;20133;-57
2024/01/09 02:12:19;;;;;;;13.38;8.25;;;3.20;91.80;;;;;;5109283;28;20042;-58
2024/01/09 02:14:46;;;;;;;15.88;8.23;;;3.20;91.90;;;;;;5109751;28;20024;-57
2024/01/09 02:17:12;;;;;;;18.25;8.20;;;3.20;91.90;;;;;;5091729;28;20020;-57
2024/01/09 02:19:38;;;;;;;13.52;8.57;;;3.20;91.90;;;;;;5091479;28;20034;-57
2024/01/09 02:22:03;;;;;;;24.95;8.57;;;3.20;91.90;;;;;;5109203;28;20035;-57
2024/01/09 02:24:29;;;;;;;16.10;8.75;;;3.20;91.90;;;;;;5109197;28;20105;-57
2024/01/09 02:27:04;;;;;;;13.52;8.20;;;3.20;91.80;;;;;;5090879;28;20066;-57
2024/01/09 02:29:30;;;;;;;15.70;8.35;;;3.20;91.80;;;;;;5090917;28;20562;-57
2024/01/09 02:31:55;;;;;;;15.55;8.70;;;3.20;91.80;;;;;;5091019;28;20031;-57
2024/01/09 02:34:21;;;;;;;13.68;8.40;;;3.20;91.80;;;;;;5090017;28;20040;-58
2024/01/09 02:36:46;;;;;;;14.40;8.35;;;3.20;91.80;;;;;;5090455;28;20060;-57
2024/01/09 02:39:12;;;;;;;10.73;7.43;;;3.10;91.80;;;;;;5108895;28;20360;-57
2024/01/09 02:41:38;;;;;;;11.80;8.13;;;3.10;91.70;;;;;;5108624;28;20407;-57
2024/01/09 02:44:04;;;;;;;14.95;8.32;;;3.10;91.70;;;;;;5108628;28;20043;-58
2024/01/09 02:46:29;;;;;;;10.32;7.85;;;3.10;91.60;;;;;;5108657;28;20039;-57
2024/01/09 02:48:55;;;;;;;12.85;7.90;;;3.10;91.70;;;;;;5108614;28;20032;-57
2024/01/09 02:51:20;;;;;;;12.82;8.05;;;3.10;91.80;;;;;;5108642;28;20028;-58
2024/01/09 02:53:47;;;;;;;15.23;7.72;;;3.10;91.80;;;;;;5108576;28;20479;-57
2024/01/09 02:56:13;;;;;;;12.15;7.60;;;3.10;91.80;;;;;;5108577;28;20024;-57
2024/01/09 02:58:39;;;;;;;9.68;7.53;;;3.10;91.80;;;;;;5108508;28;20035;-58
2024/01/09 03:01:04;;;;;;;14.43;8.80;;;3.10;91.80;;;;;;5108441;28;20468;-57
2024/01/09 03:03:30;;;;;;;12.00;7.95;;;3.10;91.80;;;;;;5108445;28;20091;-57
2024/01/09 03:05:55;;;;;;;13.75;8.23;;;3.00;91.80;;;;;;5108346;28;20051;-57
2024/01/09 03:08:21;;;;;;;14.93;7.40;;;3.10;91.80;;;;;;5108127;28;20035;-58
2024/01/09 03:10:46;;;;;;;12.85;7.82;;;3.10;91.90;;;;;;5107917;28;20107;-58
2024/01/09 03:13:12;;;;;;;11.10;7.20;;;3.10;91.90;;;;;;5108088;28;20027;-57
2024/01/09 03:15:37;;;;;;;13.13;7.57;;;3.10;91.80;;;;;;5108096;28;20024;-58
2024/01/09 03:18:03;;;;;;;14.10;8.40;;;3.10;91.70;;;;;;5108044;28;20081;-57
2024/01/09 03:20:29;;;;;;;12.27;7.70;;;3.10;91.70;;;;;;5108011;28;20446;-58
2024/01/09 03:22:54;;;;;;;12.88;7.47;;;3.00;91.70;;;;;;5107801;28;20054;-57
2024/01/09 03:25:20;;;;;;;15.10;8.40;;;3.00;91.80;;;;;;5107765;28;20035;-57
2024/01/09 03:27:45;;;;;;;12.13;7.70;;;3.10;91.80;;;;;;5107895;28;20488;-57
2024/01/09 03:30:11;;;;;;;14.73;8.35;;;3.00;91.80;;;;;;5107435;28;20054;-58
2024/01/09 03:32:37;;;;;;;16.95;8.05;;;3.00;91.70;;;;;;5107592;28;20032;-57
2024/01/09 03:35:02;;;;;;;10.10;7.57;;;3.00;91.80;;;;;;5107534;28;20051;-57
2024/01/09 03:37:28;;;;;;;11.55;7.22;;;3.00;91.80;;;;;;5089387;28;20027;-57
2024/01/09 03:39:53;;;;;;;10.18;7.25;;;3.00;91.70;;;;;;5107598;28;20036;-58
2024/01/09 03:42:19;;;;;;;12.40;7.43;;;3.00;91.80;;;;;;5107592;28;20383;-57
2024/01/09 03:44:45;;;;;;;14.52;7.78;;;3.00;91.80;;;;;;5107638;28;20039;-57
2024/01/09 03:47:10;;;;;;;10.43;7.10;;;3.00;91.70;;;;;;5107661;28;20093;-57
2024/01/09 03:49:36;;;;;;;15.73;7.63;;;3.00;91.80;;;;;;5107531;28;20544;-58
2024/01/09 03:52:03;;;;;;;10.93;7.75;;;3.00;91.80;;;;;;5108301;28;20035;-57
2024/01/09 03:54:28;;;;;;;10.35;7.63;;;3.00;91.80;;;;;;5107608;28;20077;-57
2024/01/09 03:56:54;;;;;;;11.25;7.88;;;3.00;91.80;;;;;;5107159;28;20024;-57
2024/01/09 03:59:19;;;;;;;12.07;7.75;;;3.00;91.80;;;;;;5107481;28;20044;-57
2024/01/09 04:01:45;;;;;;;9.90;7.38;;;3.00;91.70;;;;;;5107105;28;20020;-58
2024/01/09 04:04:10;;;;;;;10.40;7.80;;;3.00;91.80;;;;;;5107323;28;20085;-56
2024/01/09 04:06:43;;;;;;;14.35;8.40;;;3.00;91.80;;;;;;5088860;28;20024;-57
2024/01/09 04:09:10;;;;;;;10.68;8.10;;;3.00;91.80;;;;;;5107180;28;20084;-57
2024/01/09 04:11:42;;;;;;;12.00;7.45;;;3.00;91.80;;;;;;5107077;28;20024;-58
2024/01/09 04:14:07;;;;;;;9.82;7.90;;;3.00;91.80;;;;;;5107094;28;20123;-58
2024/01/09 04:16:34;;;;;;;14.48;7.25;;;3.00;91.80;;;;;;5106903;28;20419;-58
2024/01/09 04:18:59;;;;;;;10.57;6.45;;;2.90;91.70;;;;;;5106834;28;20044;-57
2024/01/09 04:21:25;;;;;;;11.13;7.28;;;2.90;91.80;;;;;;5106946;28;20039;-57
2024/01/09 04:23:50;;;;;;;10.90;7.47;;;2.90;91.80;;;;;;5106994;28;20408;-57
2024/01/09 04:26:16;;;;;;;11.15;7.53;;;2.90;91.80;;;;;;5106836;28;20028;-57
2024/01/09 04:28:41;;;;;;;10.90;7.88;;;2.90;91.90;;;;;;5106746;28;20036;-58
2024/01/09 04:31:07;;;;;;;9.68;7.38;;;2.90;91.90;;;;;;5106834;28;20020;-58
2024/01/09 04:33:33;;;;;;;11.63;8.07;;;2.90;91.90;;;;;;5106772;28;20589;-57
2024/01/09 04:35:58;;;;;;;10.75;7.22;;;2.90;91.90;;;;;;5106557;28;20024;-57
2024/01/09 04:38:24;;;;;;;12.20;7.68;;;2.90;91.90;;;;;;5106660;28;20031;-57
2024/01/09 04:40:49;;;;;;;12.40;8.13;;;2.90;91.90;;;;;;5106668;28;20051;-57
2024/01/09 04:43:15;;;;;;;10.45;6.95;;;2.90;91.80;;;;;;5106644;28;20039;-58
2024/01/09 04:45:40;;;;;;;9.45;7.80;;;2.90;91.80;;;;;;5106595;28;20077;-57
2024/01/09 04:48:06;;;;;;;8.93;7.03;;;2.90;91.80;;;;;;5106367;28;20039;-57
2024/01/09 04:50:32;;;;;;;10.48;8.35;;;2.90;91.70;;;;;;5106291;28;20020;-57
2024/01/09 04:52:58;;;;;;;11.50;7.60;;;2.90;91.80;;;;;;5106428;28;20043;-57
2024/01/09 04:55:23;;;;;;;11.68;7.93;;;2.90;91.70;;;;;;5106547;28;20108;-57
2024/01/09 04:57:49;;;;;;;10.75;7.25;;;2.90;91.70;;;;;;5108205;28;20028;-57
2024/01/09 05:00:15;;;;;;;10.90;7.38;;;2.90;91.70;;;;;;5113127;28;20024;-58
2024/01/09 05:02:40;;;;;;;14.45;8.30;;;2.90;91.80;;;;;;5113202;28;20028;-57
2024/01/09 05:05:07;;;;;;;11.35;7.47;;;2.90;91.70;;;;;;5113213;28;20035;-58
2024/01/09 05:07:33;;;;;;;11.77;7.07;;;2.90;91.80;;;;;;5113053;28;20085;-57
2024/01/09 05:09:58;;;;;;;9.20;7.40;;;2.90;91.70;;;;;;5113028;28;20024;-57
2024/01/09 05:12:24;;;;;;;10.40;7.47;;;2.90;91.70;;;;;;5095065;28;20023;-58
2024/01/09 05:14:49;;;;;;;15.93;8.20;;;2.90;91.70;;;;;;5113057;28;20040;-58
2024/01/09 05:17:15;;;;;;;8.85;7.20;;;2.90;91.80;;;;;;5112938;28;20084;-58
2024/01/09 05:19:40;;;;;;;17.95;7.97;;;2.90;91.70;;;;;;5113179;28;20085;-57
2024/01/09 05:22:06;;;;;;;13.60;7.45;;;2.90;91.70;;;;;;5113080;28;20483;-58
2024/01/09 05:24:31;;;;;;;14.60;8.63;;;2.90;91.70;;;;;;5113101;28;20173;-57
2024/01/09 05:26:57;;;;;;;14.13;8.98;;;2.90;91.70;;;;;;5112787;28;20028;-57
2024/01/09 05:29:23;;;;;;;18.50;7.85;;;2.90;91.70;;;;;;5112835;28;20066;-58
2024/01/09 05:31:48;;;;;;;16.55;8.98;;;2.90;91.60;;;;;;5094649;28;20141;-58
2024/01/09 05:34:14;;;;;;;16.05;8.98;;;2.90;91.50;;;;;;5111548;28;20085;-57
2024/01/09 05:36:39;;;;;;;17.20;9.68;;;2.90;91.60;;;;;;5111945;28;20020;-57
2024/01/09 05:39:06;;;;;;;16.58;9.48;;;2.90;91.60;;;;;;5112790;28;20028;-58
2024/01/09 05:41:31;;;;;;;20.58;9.15;;;3.00;91.60;;;;;;5112745;28;20107;-57
2024/01/09 05:43:57;;;;;;;16.70;10.05;;;2.90;91.60;;;;;;5112759;28;20376;-58
2024/01/09 05:46:23;;;;;;;18.90;8.63;;;2.90;91.60;;;;;;5112811;28;20087;-58
2024/01/09 05:48:48;;;;;;;13.60;8.68;;;3.00;91.60;;;;;;5113033;28;20054;-58
2024/01/09 05:51:14;;;;;;;17.88;9.07;;;3.00;91.50;;;;;;5112778;28;20053;-57
2024/01/09 05:53:40;;;;;;;24.75;9.05;;;3.00;91.50;;;;;;5112766;28;20050;-58
2024/01/09 05:56:06;;;;;;;17.13;9.18;;;3.00;91.50;;;;;;5112639;28;20166;-58
2024/01/09 05:58:33;;;;;;;20.08;9.75;;;3.00;91.40;;;;;;5112609;28;20031;-57
2024/01/09 06:00:59;;;;;;;23.55;9.32;;;3.00;91.50;;;;;;5112579;28;20072;-58
2024/01/09 06:03:24;;;;;;;22.10;9.48;;;3.00;91.50;;;;;;5112559;28;20059;-58
2024/01/09 06:05:50;;;;;;;18.55;9.45;;;3.00;91.50;;;;;;5112524;28;20024;-58
2024/01/09 06:08:15;;;;;;;15.52;9.13;;;3.00;91.50;;;;;;5112687;28;20028;-57
2024/01/09 06:10:41;;;;;;;15.82;8.68;;;3.00;91.50;;;;;;5108386;28;20089;-58
2024/01/09 06:13:07;;;;;;;19.95;9.23;;;3.00;91.50;;;;;;5091431;28;20031;-57
2024/01/09 06:15:32;;;;;;;17.90;9.65;;;3.00;91.40;;;;;;5109222;28;20031;-58
2024/01/09 06:17:58;;;;;;;20.25;10.25;;;3.00;91.40;;;;;;5108812;28;20043;-58
2024/01/09 06:20:24;;;;;;;20.85;9.20;;;3.00;91.30;;;;;;5108784;28;20035;-58
2024/01/09 06:22:49;;;;;;;11.82;8.90;;;3.00;91.20;;;;;;5108980;28;20035;-58
2024/01/09 06:25:15;;;;;;;16.85;10.15;;;3.00;91.20;;;;;;5109036;28;20453;-57
2024/01/09 06:27:40;;;;;;;26.38;10.90;;;3.00;91.30;;;;;;5108697;28;20024;-58
2024/01/09 06:30:06;;;;;;;43.75;11.27;;;3.00;91.30;;;;;;5108621;28;20020;-57
2024/01/09 06:32:32;;;;;;;33.50;10.68;;;3.00;91.10;;;;;;5108761;28;20025;-50
2024/01/09 06:34:58;;;;;;;20.73;10.23;;;3.00;91.10;;;;;;5108724;28;20034;-58
2024/01/09 06:37:23;;;;;;;37.55;10.80;;;3.00;91.20;;;;;;5108577;28;20024;-56
2024/01/09 06:39:49;;;;;;;33.25;11.70;;;3.00;91.40;;;;;;5108872;28;20036;-58
2024/01/09 06:42:15;;;;;;;38.85;12.60;;;3.00;91.40;;;;;;5108593;28;20383;-57
2024/01/09 06:44:41;;;;;;;48.35;12.63;;;3.00;91.40;;;;;;5108734;28;20036;-57
2024/01/09 06:47:06;;;;;;;38.00;11.95;;;3.00;91.40;;;;;;5108543;28;20585;-58
2024/01/09 06:49:32;;;;;;;30.20;12.07;;;3.00;91.40;;;;;;5090417;28;20063;-58
2024/01/09 06:51:57;;;;;;;32.28;11.68;;;3.00;91.20;;;;;;5108445;28;20044;-58
2024/01/09 06:54:23;;;;;;;36.90;11.90;;;3.00;91.30;;;;;;5108312;28;20028;-58
2024/01/09 06:56:48;;;;;;;35.00;12.07;;;3.00;91.40;;;;;;5107980;28;20468;-57
2024/01/09 06:59:14;;;;;;;32.22;11.15;;;3.00;91.40;;;;;;5108244;28;20080;-57
2024/01/09 07:01:40;;;;;;;26.90;11.45;;;3.00;91.30;;;;;;5108301;28;20028;-57
2024/01/09 07:04:06;;;;;;;23.88;11.90;;;3.00;91.30;;;;;;5108368;28;20039;-57
2024/01/09 07:06:32;;;;;;;39.83;12.63;;;3.00;91.30;;;;;;5107267;28;20020;-57
2024/01/09 07:08:58;;;;;;;27.83;11.45;;;3.00;91.30;;;;;;5104774;28;20492;-58
2024/01/09 07:11:23;;;;;;;33.42;12.82;;;3.00;91.40;;;;;;5126923;28;20391;-57
2024/01/09 07:13:49;;;;;;;29.55;11.73;;;3.00;91.40;;;;;;5125438;28;20369;-57
2024/01/09 07:16:14;;;;;;;35.15;12.65;;;3.00;91.40;;;;;;5126350;28;20031;-58
2024/01/09 07:18:40;;;;;;;31.52;13.25;;;3.00;91.50;;;;;;5126145;28;20026;-58
2024/01/09 07:21:05;;;;;;;26.17;11.73;;;3.00;91.50;;;;;;5106060;28;20031;-57
2024/01/09 07:23:31;;;;;;;31.95;12.07;;;3.00;91.50;;;;;;5126014;28;20032;-58
2024/01/09 07:25:58;;;;;;;30.92;13.27;;;3.00;91.50;;;;;;5126317;28;20027;-58
2024/01/09 07:28:23;;;;;;;32.35;12.88;;;3.00;91.50;;;;;;5125962;28;20026;-57
2024/01/09 07:30:52;;;;;;;33.75;13.13;;;3.00;91.50;;;;;;5125852;28;20024;-58
2024/01/09 07:33:18;;;;;;;49.72;12.82;;;3.00;91.50;;;;;;5107703;28;20028;-57
2024/01/09 07:35:43;;;;;;;39.45;13.82;;;3.00;91.50;;;;;;5127023;28;20058;-58
2024/01/09 07:38:09;;;;;;;28.63;13.25;;;2.90;91.50;;;;;;5127343;28;20063;-57
2024/01/09 07:40:34;;;;;;;33.05;13.65;;;2.90;91.50;;;;;;5126014;28;20474;-58
2024/01/09 07:43:00;;;;;;;29.50;13.18;;;2.90;91.50;;;;;;5125644;28;20031;-57
2024/01/09 07:45:28;;;;;;;25.90;13.90;;;2.90;91.50;;;;;;5120083;28;20031;-57
2024/01/09 07:47:55;;;;;;;30.77;13.95;;;2.90;91.50;;;;;;5127521;28;20085;-57
2024/01/09 07:50:21;;;;;;;31.67;13.40;;;2.90;91.50;;;;;;5127324;28;20077;-58
2024/01/09 07:52:47;;;;;;;27.65;13.68;;;2.90;91.50;;;;;;5108673;28;20779;-59
2024/01/09 07:55:12;;;;;;;30.05;14.13;;;2.90;91.50;;;;;;5107240;28;20031;-57
2024/01/09 07:57:38;;;;;;;32.53;14.25;;;2.90;91.50;;;;;;5107091;28;20495;-57
2024/01/09 08:00:04;;;;;;;32.22;13.30;;;2.90;91.50;;;;;;5105661;28;20024;-57
2024/01/09 08:02:30;;;;;;;40.20;14.73;;;2.90;91.50;;;;;;5095900;28;20099;-56
2024/01/09 08:04:55;;;;;;;56.17;15.02;;;2.90;91.50;;;;;;5099739;28;20089;-57
2024/01/09 08:07:21;;;;;;;49.65;15.90;;;2.90;91.50;;;;;;5106996;28;20030;-57
2024/01/09 08:09:47;;;;;;;40.78;15.10;;;2.90;91.60;;;;;;5099280;28;20072;-57
2024/01/09 08:12:12;;;;;;;36.03;15.38;;;2.90;91.50;;;;;;5118441;28;20030;-57
2024/01/09 08:14:38;;;;;;;42.10;15.00;;;2.90;91.50;;;;;;5126994;28;20049;-57
2024/01/09 08:17:04;;;;;;;41.08;14.02;;;2.90;91.50;;;;;;5126976;28;20414;-57
2024/01/09 08:19:29;;;;;;;34.42;14.30;;;2.90;91.50;;;;;;5101337;28;20109;-57
2024/01/09 08:21:55;;;;;;;48.38;14.45;;;2.90;91.50;;;;;;5105689;28;20030;-57
2024/01/09 08:24:22;;;;;;;48.00;14.95;;;2.90;91.60;;;;;;5088730;28;20047;-56
2024/01/09 08:26:48;;;;;;;34.60;14.23;;;2.90;91.60;;;;;;5106416;28;20106;-57
2024/01/09 08:29:18;;;;;;;29.70;13.93;;;2.90;91.60;;;;;;5112025;28;20032;-57
2024/01/09 08:31:47;;;;;;;33.80;14.48;;;2.90;91.60;;;;;;5106646;28;20024;-57
2024/01/09 08:34:13;;;;;;;64.45;14.93;;;2.90;91.60;;;;;;5105807;28;20092;-57
2024/01/09 08:36:42;;;;;;;55.05;17.48;;;2.90;91.60;;;;;;5101568;28;20020;-57
2024/01/09 08:39:14;;;;;;;41.47;15.80;;;2.90;91.60;;;;;;5096500;28;20036;-57
2024/01/09 08:41:41;;;;;;;63.80;16.40;;;2.90;91.60;;;;;;5086077;28;20035;-57
2024/01/09 08:44:07;;;;;;;48.47;17.10;;;2.90;91.70;;;;;;5084685;28;20040;-56
2024/01/09 08:46:33;;;;;;;50.08;15.38;;;2.90;91.70;;;;;;5096312;28;20034;-57
2024/01/09 08:48:58;;;;;;;65.35;17.00;;;2.90;91.70;;;;;;5106256;28;20111;-57
2024/01/09 08:51:24;;;;;;;46.25;15.85;;;2.90;91.70;;;;;;5106027;28;20034;-57
2024/01/09 08:53:53;;;;;;;53.38;15.48;;;2.90;91.70;;;;;;5106374;28;20456;-57
2024/01/09 08:56:19;;;;;;;67.45;16.15;;;2.90;91.70;;;;;;5104766;28;20024;-57
2024/01/09 08:58:44;;;;;;;58.78;16.48;;;2.90;91.70;;;;;;5105593;28;20032;-57
2024/01/09 09:01:10;;;;;;;70.35;16.42;;;2.90;91.70;;;;;;5105474;28;20682;-57
2024/01/09 09:03:36;;;;;;;50.03;14.95;;;2.90;91.70;;;;;;5105604;28;20039;-57
2024/01/09 09:06:02;;;;;;;61.92;16.05;;;2.90;92.00;;;;;;5117978;28;20465;-57
2024/01/09 09:08:28;;;;;;;42.25;15.45;;;2.90;91.80;;;;;;5088908;28;20024;-57
2024/01/09 09:10:53;;;;;;;40.65;14.75;;;2.90;91.70;;;;;;5124696;28;20035;-57
2024/01/09 09:13:19;;;;;;;44.25;14.27;;;2.90;91.70;;;;;;5124355;28;20035;-57
2024/01/09 09:15:44;;;;;;;34.72;15.07;;;2.90;91.60;;;;;;5104127;28;20096;-57
2024/01/09 09:18:10;;;;;;;41.22;14.70;;;2.90;91.90;;;;;;5085555;28;20059;-57
2024/01/09 09:20:36;;;;;;;41.08;15.48;;;2.90;91.60;;;;;;5103498;28;20061;-57
2024/01/09 09:23:02;;;;;;;40.33;15.63;;;2.90;91.60;;;;;;5091331;28;20063;-57
2024/01/09 09:25:28;;;;;;;32.88;14.18;;;2.90;91.60;;;;;;5111904;28;20036;-57
2024/01/09 09:27:54;;;;;;;39.20;15.88;;;2.90;91.60;;;;;;5103285;28;20039;-57
2024/01/09 09:30:20;;;;;;;36.85;15.07;;;2.90;91.60;;;;;;5117995;28;20031;-57
2024/01/09 09:32:45;;;;;;;42.47;14.82;;;2.90;91.70;;;;;;5123233;28;20020;-57
2024/01/09 09:35:11;;;;;;;33.67;15.27;;;2.90;91.60;;;;;;5123671;28;20026;-57
2024/01/09 09:37:37;;;;;;;31.40;14.93;;;2.90;91.60;;;;;;5124760;28;20041;-57
2024/01/09 09:40:03;;;;;;;34.45;13.50;;;2.90;91.60;;;;;;5116214;28;20027;-57
2024/01/09 09:42:29;;;;;;;40.17;14.32;;;2.90;91.60;;;;;;5104518;28;20031;-56
2024/01/09 09:44:54;;;;;;;44.13;13.57;;;2.90;91.60;;;;;;5090403;28;20028;-57
2024/01/09 09:47:21;;;;;;;41.03;14.90;;;2.90;91.60;;;;;;5109108;28;20016;-57
2024/01/09 09:49:48;;;;;;;36.28;15.50;;;2.90;91.60;;;;;;5108121;28;20111;-57
2024/01/09 09:52:14;;;;;;;35.65;14.52;;;2.90;91.60;;;;;;5091602;28;20035;-57
2024/01/09 09:54:40;;;;;;;35.88;14.65;;;2.90;91.60;;;;;;5077324;28;20039;-57
2024/01/09 09:57:05;;;;;;;42.05;14.55;;;2.90;91.60;;;;;;5108806;28;20024;-57
2024/01/09 09:59:31;;;;;;;48.95;16.13;;;2.90;91.50;;;;;;5101715;28;20084;-58
2024/01/09 10:01:57;;;;;;;49.20;16.40;;;2.90;91.50;;;;;;5125105;27;20053;-57
2024/01/09 10:04:26;;;;;;;37.35;16.77;;;2.90;91.70;;;;;;5107962;28;20034;-57
2024/01/09 10:06:52;;;;;;;46.03;15.52;;;2.90;91.70;;;;;;5114070;28;20031;-57
2024/01/09 10:09:18;;;;;;;41.20;16.35;;;2.90;91.70;;;;;;5101934;28;20032;-57
2024/01/09 10:11:49;;;;;;;53.70;15.35;;;2.90;91.60;;;;;;5101808;28;20043;-56
2024/01/09 10:14:15;;;;;;;56.17;16.52;;;3.00;91.60;;;;;;5090882;28;20391;-57
2024/01/09 10:16:51;;;;;;;44.45;15.57;;;2.90;92.10;;;;;;5098170;28;20070;-57
2024/01/09 10:19:17;;;;;;;36.55;15.55;;;3.00;91.90;;;;;;5101924;28;20034;-57
2024/01/09 10:21:42;;;;;;;46.20;15.43;;;3.00;91.80;;;;;;5116452;27;20110;-57
2024/01/09 10:24:08;;;;;;;61.22;17.50;;;3.00;91.80;;;;;;5108108;28;20043;-57
2024/01/09 10:26:34;;;;;;;48.45;16.25;;;2.90;91.80;;;;;;5089845;28;20020;-57
2024/01/09 10:28:59;;;;;;;47.78;16.52;;;2.90;91.80;;;;;;5107026;28;20032;-57
2024/01/09 10:31:25;;;;;;;55.78;15.68;;;3.00;91.80;;;;;;5106876;28;20131;-57
2024/01/09 10:33:50;;;;;;;60.28;17.08;;;3.00;91.90;;;;;;5101603;28;20054;-57
2024/01/09 10:36:16;;;;;;;60.42;17.20;;;3.00;91.80;;;;;;5098206;28;20025;-57
2024/01/09 10:38:42;;;;;;;48.90;17.35;;;3.00;91.70;;;;;;5099898;28;20028;-57
2024/01/09 10:41:15;;;;;;;60.90;19.10;;;3.00;91.60;;;;;;5109041;28;20020;-57
2024/01/09 10:43:41;;;;;;;79.40;18.20;;;3.00;91.70;;;;;;5085117;28;20048;-57
2024/01/09 10:46:07;;;;;;;90.38;20.45;;;3.00;91.70;;;;;;5108506;28;20053;-57
2024/01/09 10:48:32;;;;;;;59.92;17.42;;;3.00;91.80;;;;;;5078226;28;20024;-57
2024/01/09 10:50:58;;;;;;;50.45;18.25;;;3.00;91.70;;;;;;5069703;28;20088;-57
2024/01/09 10:53:24;;;;;;;225.27;30.83;;;3.00;91.60;;;;;;5086351;28;20533;-57
2024/01/09 10:55:50;;;;;;;66.57;20.33;;;3.00;91.80;;;;;;5115347;27;20020;-57
2024/01/09 10:58:15;;;;;;;88.15;20.63;;;3.00;91.70;;;;;;5101885;28;20051;-57
2024/01/09 11:00:41;;;;;;;70.47;18.90;;;3.00;91.80;;;;;;5067544;28;20028;-57
2024/01/09 11:03:07;;;;;;;77.53;21.23;;;3.10;91.80;;;;;;5110456;27;20036;-57
2024/01/09 11:05:32;;;;;;;86.97;21.45;;;3.00;91.70;;;;;;5104295;28;20031;-57
2024/01/09 11:07:58;;;;;;;75.63;19.15;;;3.10;91.70;;;;;;5103406;28;20088;-57
2024/01/09 11:10:24;;;;;;;97.88;21.85;;;3.10;91.80;;;;;;5090078;28;20038;-57
2024/01/09 11:12:51;;;;;;;124.35;24.35;;;3.10;91.80;;;;;;5106747;27;20029;-59
2024/01/09 11:15:31;;;;;;;75.22;21.25;;;3.10;91.70;;;;;;5083513;28;20218;-57
2024/01/09 11:18:10;;;;;;;71.55;19.88;;;3.10;91.70;;;;;;5103968;28;20032;-58
2024/01/09 11:20:36;;;;;;;83.15;21.08;;;3.10;91.70;;;;;;5107158;28;20031;-57
2024/01/09 11:23:01;;;;;;;96.90;21.73;;;3.10;91.80;;;;;;5105594;28;20028;-57
2024/01/09 11:25:32;;;;;;;84.55;21.55;;;3.10;91.80;;;;;;5101325;28;20426;-58
2024/01/09 11:27:58;;;;;;;77.85;20.15;;;3.20;91.80;;;;;;5101048;28;20044;-57
2024/01/09 11:30:28;;;;;;;131.52;23.58;;;3.10;91.80;;;;;;5090888;28;20111;-57
2024/01/09 11:32:55;;;;;;;95.03;22.00;;;3.10;91.80;;;;;;5097339;28;20036;-57
2024/01/09 11:35:21;;;;;;;76.75;21.27;;;3.10;91.80;;;;;;5094108;28;20020;-50
2024/01/09 11:37:51;;;;;;;94.45;20.27;;;3.10;91.70;;;;;;5093885;28;20089;-50
2024/01/09 11:40:18;;;;;;;89.15;21.20;;;3.10;91.70;;;;;;5075743;28;20027;-50
2024/01/09 11:42:50;;;;;;;78.38;22.67;;;3.10;91.60;;;;;;5100896;28;20031;-50
2024/01/09 11:45:23;;;;;;;65.00;20.73;;;3.10;91.60;;;;;;5109627;27;20054;-50
2024/01/09 11:47:49;;;;;;;77.38;22.45;;;3.10;91.60;;;;;;5100018;28;20387;-50
2024/01/09 11:50:15;;;;;;;69.28;19.98;;;3.10;91.50;;;;;;5092788;28;20119;-50
2024/01/09 11:52:42;;;;;;;86.68;20.88;;;3.10;91.50;;;;;;5102490;28;20027;-51
2024/01/09 11:55:09;;;;;;;74.07;19.83;;;3.20;91.60;;;;;;5102427;28;20032;-50
2024/01/09 11:57:35;;;;;;;68.00;20.80;;;3.10;91.60;;;;;;5107973;28;20508;-50
2024/01/09 12:00:07;;;;;;;60.47;20.42;;;3.10;91.50;;;;;;5099300;28;20039;-50
2024/01/09 12:02:33;;;;;;;65.72;19.83;;;3.10;91.50;;;;;;5097087;28;20035;-50
2024/01/09 12:05:00;;;;;;;93.60;20.85;;;3.10;91.50;;;;;;5098787;28;20031;-50
2024/01/09 12:07:27;;;;;;;92.07;22.42;;;3.10;91.50;;;;;;5076644;28;20036;-50
2024/01/09 12:09:52;;;;;;;60.28;18.85;;;3.10;91.40;;;;;;5081064;28;20124;-50
2024/01/09 12:12:25;;;;;;;83.38;23.27;;;3.10;91.40;;;;;;5074818;28;20081;-50
2024/01/09 12:14:57;;;;;;;70.80;21.33;;;3.10;91.40;;;;;;5091563;28;20032;-50
2024/01/09 12:17:33;;;;;;;68.47;21.73;;;3.10;91.30;;;;;;5095227;28;20035;-50
2024/01/09 12:20:00;;;;;;;83.03;21.08;;;3.10;91.40;;;;;;5096786;28;20028;-50
2024/01/09 12:22:25;;;;;;;84.85;22.15;;;3.10;91.40;;;;;;5096972;28;20036;-50
2024/01/09 12:24:51;;;;;;;79.68;21.02;;;3.10;91.40;;;;;;5096126;28;20040;-50
2024/01/09 12:27:18;;;;;;;68.43;20.42;;;3.10;91.40;;;;;;5094170;28;20020;-50
2024/01/09 12:29:44;;;;;;;64.22;19.65;;;3.10;91.30;;;;;;5105199;28;20106;-50
2024/01/09 12:32:11;;;;;;;58.35;19.15;;;3.10;91.30;;;;;;5110014;27;20016;-50
2024/01/09 12:34:37;;;;;;;55.67;19.17;;;3.10;91.30;;;;;;5080837;28;20024;-50